Time;durP1;ratioP1;P1;durP2;ratioP2;P2;SDS_P1;SDS_P2;PMS_P1;PMS_P2;Temp;Humidity;BMP_temperature;BMP_pressure;BME280_temperature;BME280_humidity;BME280_pressure;Samples;Min_cycle;Max_cycle;Signal;HPM_P1;HPM_P2
2022/05/29 00:01:18;;;;;;;13.63;5.57;;;10.40;99.90;;;;;;4974816;28;20050;-76
2022/05/29 00:03:44;;;;;;;12.88;5.15;;;10.50;99.90;;;;;;4981122;28;20030;-76
2022/05/29 00:06:11;;;;;;;15.35;5.28;;;10.40;99.90;;;;;;4989738;28;20034;-76
2022/05/29 00:08:41;;;;;;;18.70;4.68;;;10.40;99.90;;;;;;4977439;28;20145;-76
2022/05/29 00:11:10;;;;;;;9.90;4.25;;;10.40;99.90;;;;;;4982948;28;20046;-77
2022/05/29 00:13:37;;;;;;;14.27;4.88;;;10.40;99.90;;;;;;4989525;28;20081;-76
2022/05/29 00:16:03;;;;;;;15.43;4.70;;;10.40;99.90;;;;;;4988385;28;20101;-76
2022/05/29 00:18:29;;;;;;;14.15;4.10;;;10.40;99.90;;;;;;4974622;28;20033;-77
2022/05/29 00:20:57;;;;;;;14.70;5.82;;;10.40;99.90;;;;;;4985748;28;20034;-76
2022/05/29 00:23:25;;;;;;;16.10;5.55;;;10.40;99.90;;;;;;4990851;28;20023;-76
2022/05/29 00:25:52;;;;;;;17.30;5.20;;;10.40;99.90;;;;;;5003382;28;20018;-80
2022/05/29 00:28:19;;;;;;;15.82;5.00;;;10.40;99.90;;;;;;5004490;28;20030;-77
2022/05/29 00:30:45;;;;;;;17.40;5.40;;;10.40;99.90;;;;;;4998337;28;20018;-78
2022/05/29 00:33:12;;;;;;;12.65;4.55;;;10.40;99.90;;;;;;4995257;28;20030;-76
2022/05/29 00:35:39;;;;;;;14.48;5.05;;;10.40;99.90;;;;;;5000027;28;20058;-75
2022/05/29 00:38:07;;;;;;;15.32;5.72;;;10.40;99.90;;;;;;5006016;28;20038;-76
2022/05/29 00:40:43;;;;;;;15.48;5.20;;;10.40;99.90;;;;;;4987560;28;20034;-77
2022/05/29 00:43:10;;;;;;;11.10;4.75;;;10.40;99.90;;;;;;4985820;28;20153;-76
2022/05/29 00:45:53;;;;;;;13.40;5.10;;;10.40;99.90;;;;;;4988477;28;20041;-76
2022/05/29 00:48:20;;;;;;;14.30;4.43;;;10.40;99.90;;;;;;4988024;28;20030;-76
2022/05/29 00:50:49;;;;;;;14.40;4.72;;;10.40;99.90;;;;;;4985079;28;20394;-76
2022/05/29 00:53:15;;;;;;;20.80;5.35;;;10.40;99.90;;;;;;4984732;28;20117;-76
2022/05/29 00:55:49;;;;;;;18.10;4.82;;;10.40;99.90;;;;;;4986087;28;20069;-76
2022/05/29 00:58:16;;;;;;;24.63;5.40;;;10.40;99.90;;;;;;4980291;28;20035;-76
2022/05/29 01:00:44;;;;;;;13.73;5.30;;;10.40;99.90;;;;;;4986495;28;20061;-77
2022/05/29 01:03:11;;;;;;;19.83;5.15;;;10.40;99.90;;;;;;4980364;28;20198;-76
2022/05/29 01:05:37;;;;;;;15.88;5.15;;;10.40;99.90;;;;;;4982742;28;20027;-76
2022/05/29 01:08:14;;;;;;;14.27;4.78;;;10.40;99.90;;;;;;4980516;28;20023;-75
2022/05/29 01:10:49;;;;;;;18.92;4.72;;;10.40;99.90;;;;;;4985213;28;20565;-76
2022/05/29 01:13:52;;;;;;;17.25;4.25;;;10.40;99.90;;;;;;4972472;28;20034;-76
2022/05/29 01:16:46;;;;;;;17.10;5.20;;;10.40;99.90;;;;;;4981859;28;20090;-76
2022/05/29 01:20:10;;;;;;;9.82;4.07;;;10.40;99.90;;;;;;4984860;28;20101;-77
2022/05/29 01:22:55;;;;;;;16.10;4.57;;;10.40;99.90;;;;;;4927596;28;20048;-77
2022/05/29 01:25:39;;;;;;;18.83;4.68;;;10.40;99.90;;;;;;4976875;28;20486;-76
2022/05/29 01:28:24;;;;;;;17.23;4.28;;;10.40;99.90;;;;;;4982639;28;20118;-76
2022/05/29 01:30:58;;;;;;;15.98;4.45;;;10.40;99.90;;;;;;4983715;28;20482;-79
2022/05/29 01:33:41;;;;;;;16.65;4.45;;;10.40;99.90;;;;;;4981017;28;20030;-76
2022/05/29 01:36:17;;;;;;;20.67;5.07;;;10.40;99.90;;;;;;4980895;28;22176;-77
2022/05/29 01:39:22;;;;;;;16.25;4.47;;;10.30;99.90;;;;;;4982637;28;20546;-76
2022/05/29 01:41:57;;;;;;;15.57;5.07;;;10.30;99.90;;;;;;4984837;28;20031;-76
2022/05/29 01:45:08;;;;;;;12.50;4.55;;;10.40;99.90;;;;;;4981007;28;20403;-77
2022/05/29 01:47:43;;;;;;;14.35;3.75;;;10.30;99.90;;;;;;4978897;28;20057;-76
2022/05/29 01:50:16;;;;;;;15.50;5.32;;;10.30;99.90;;;;;;4984756;28;20185;-76
2022/05/29 01:52:48;;;;;;;15.70;4.95;;;10.30;99.90;;;;;;4984213;28;20069;-76
2022/05/29 01:55:25;;;;;;;15.82;5.43;;;10.30;99.90;;;;;;4981510;28;20833;-76
2022/05/29 01:57:55;;;;;;;19.65;4.78;;;10.30;99.90;;;;;;4982774;28;20026;-78
2022/05/29 02:00:24;;;;;;;14.73;5.07;;;10.30;99.90;;;;;;4969066;28;20035;-76
2022/05/29 02:02:56;;;;;;;20.88;5.65;;;10.30;99.90;;;;;;4980952;28;20022;-76
2022/05/29 02:05:26;;;;;;;15.60;4.15;;;10.30;99.90;;;;;;4985440;28;20509;-76
2022/05/29 02:08:00;;;;;;;15.43;4.25;;;10.30;99.90;;;;;;4984932;28;20034;-76
2022/05/29 02:10:55;;;;;;;12.77;3.97;;;10.30;99.90;;;;;;4986577;28;20033;-75
2022/05/29 02:13:27;;;;;;;17.90;5.25;;;10.30;99.90;;;;;;4978789;28;20093;-77
2022/05/29 02:16:17;;;;;;;15.55;4.60;;;10.30;99.90;;;;;;4984288;28;20038;-76
2022/05/29 02:18:45;;;;;;;15.32;4.90;;;10.30;99.90;;;;;;4985379;28;20474;-76
2022/05/29 02:21:18;;;;;;;17.65;4.82;;;10.30;99.90;;;;;;4986938;28;20548;-77
2022/05/29 02:23:57;;;;;;;15.98;4.00;;;10.30;99.90;;;;;;4988109;28;20030;-76
2022/05/29 02:26:27;;;;;;;15.93;5.13;;;10.30;99.90;;;;;;4983074;28;20026;-76
2022/05/29 02:28:57;;;;;;;16.05;5.30;;;10.30;99.90;;;;;;4983567;28;20030;-76
2022/05/29 02:31:41;;;;;;;21.27;5.10;;;10.30;99.90;;;;;;4987492;28;20033;-76
2022/05/29 02:34:19;;;;;;;22.33;4.90;;;10.30;99.90;;;;;;4968644;28;20062;-75
2022/05/29 02:36:59;;;;;;;13.82;4.60;;;10.30;99.90;;;;;;4982724;28;20030;-76
2022/05/29 02:39:34;;;;;;;16.23;4.07;;;10.30;99.90;;;;;;4970083;28;20050;-76
2022/05/29 02:42:08;;;;;;;13.80;4.30;;;10.30;99.90;;;;;;4984683;28;20045;-76
2022/05/29 02:44:47;;;;;;;17.58;4.82;;;10.40;99.90;;;;;;4989784;28;20035;-76
2022/05/29 02:47:22;;;;;;;13.18;4.28;;;10.40;99.90;;;;;;4989952;28;20034;-76
2022/05/29 02:50:10;;;;;;;13.05;4.53;;;10.40;99.90;;;;;;4989291;28;20101;-78
2022/05/29 02:52:36;;;;;;;20.73;5.00;;;10.40;99.90;;;;;;4979750;28;20046;-76
2022/05/29 02:55:02;;;;;;;16.58;4.60;;;10.30;99.90;;;;;;4985305;28;20039;-77
2022/05/29 02:57:27;;;;;;;11.23;3.55;;;10.30;99.90;;;;;;4982214;28;20037;-77
2022/05/29 03:00:11;;;;;;;17.98;4.63;;;10.30;99.90;;;;;;4983876;28;20234;-77
2022/05/29 03:03:24;;;;;;;15.00;4.38;;;10.30;99.90;;;;;;4987931;28;20073;-76
2022/05/29 03:05:57;;;;;;;17.13;4.25;;;10.30;99.90;;;;;;4943985;28;20586;-76
2022/05/29 03:08:48;;;;;;;17.23;4.95;;;10.30;99.90;;;;;;4942875;28;20103;-76
2022/05/29 03:11:30;;;;;;;20.75;5.20;;;10.30;99.90;;;;;;4963059;28;20071;-76
2022/05/29 03:14:02;;;;;;;14.57;3.97;;;10.30;99.90;;;;;;4964484;28;20095;-78
2022/05/29 03:16:42;;;;;;;13.80;3.95;;;10.30;99.90;;;;;;4959733;28;20047;-77
2022/05/29 03:19:27;;;;;;;14.68;4.60;;;10.30;99.90;;;;;;4932996;28;20026;-76
2022/05/29 03:22:06;;;;;;;17.42;4.30;;;10.30;99.90;;;;;;4961920;28;20101;-76
2022/05/29 03:24:35;;;;;;;12.50;4.28;;;10.30;99.90;;;;;;4948235;28;20129;-76
2022/05/29 03:27:17;;;;;;;13.43;4.30;;;10.30;99.90;;;;;;4932672;28;20065;-77
2022/05/29 03:29:53;;;;;;;19.13;4.35;;;10.30;99.90;;;;;;4963802;28;20202;-77
2022/05/29 03:32:20;;;;;;;19.52;4.38;;;10.30;99.90;;;;;;4950845;28;20039;-78
2022/05/29 03:34:45;;;;;;;16.30;4.57;;;10.30;99.90;;;;;;4963471;28;20058;-76
2022/05/29 03:37:11;;;;;;;15.73;4.03;;;10.30;99.90;;;;;;4977145;28;20533;-77
2022/05/29 03:39:37;;;;;;;19.83;4.30;;;10.40;99.90;;;;;;4985413;28;20109;-76
2022/05/29 03:42:03;;;;;;;14.88;4.45;;;10.40;99.90;;;;;;4982988;28;20046;-76
2022/05/29 03:44:28;;;;;;;16.83;4.32;;;10.40;99.90;;;;;;4968532;28;20224;-76
2022/05/29 03:46:56;;;;;;;18.55;5.15;;;10.40;99.90;;;;;;4979370;28;20088;-77
2022/05/29 03:49:23;;;;;;;18.48;4.80;;;10.40;99.90;;;;;;4984417;28;20454;-76
2022/05/29 03:51:49;;;;;;;19.40;3.85;;;10.40;99.90;;;;;;4979272;28;20035;-76
2022/05/29 03:54:14;;;;;;;18.02;3.95;;;10.40;99.90;;;;;;4986123;28;20105;-79
2022/05/29 03:56:40;;;;;;;20.73;4.45;;;10.40;99.90;;;;;;4978569;28;20117;-76
2022/05/29 03:59:06;;;;;;;10.95;3.80;;;10.40;99.90;;;;;;4979339;28;20026;-78
2022/05/29 04:01:33;;;;;;;13.30;4.00;;;10.40;99.90;;;;;;4983204;28;20137;-76
2022/05/29 04:03:59;;;;;;;17.23;4.20;;;10.40;99.90;;;;;;4983851;28;20110;-76
2022/05/29 04:06:27;;;;;;;15.30;4.40;;;10.50;99.90;;;;;;4979411;28;20126;-75
2022/05/29 04:14:25;;;;;;;17.88;4.38;;;10.50;99.90;;;;;;4982513;28;20169;-76
2022/05/29 04:16:52;;;;;;;18.15;4.63;;;10.40;99.90;;;;;;4983641;28;20346;-76
2022/05/29 04:19:20;;;;;;;17.25;4.45;;;10.50;99.90;;;;;;4986413;28;20112;-78
2022/05/29 04:21:46;;;;;;;14.10;4.22;;;10.50;99.90;;;;;;4981625;28;20568;-76
2022/05/29 04:24:12;;;;;;;24.92;6.22;;;10.50;99.90;;;;;;4986071;28;20525;-77
2022/05/29 04:26:38;;;;;;;11.48;3.88;;;10.50;99.90;;;;;;4983717;28;20054;-78
2022/05/29 04:29:05;;;;;;;19.65;4.97;;;10.50;99.90;;;;;;4979763;28;20038;-77
2022/05/29 04:31:32;;;;;;;17.13;4.32;;;10.50;99.90;;;;;;4962540;28;20030;-76
2022/05/29 04:33:58;;;;;;;17.45;4.00;;;10.60;99.90;;;;;;4981145;28;20042;-76
2022/05/29 04:36:24;;;;;;;19.38;5.00;;;10.60;99.90;;;;;;4985738;28;20037;-77
2022/05/29 04:38:51;;;;;;;17.48;4.82;;;10.60;99.90;;;;;;4984848;28;20031;-77
2022/05/29 04:41:19;;;;;;;20.98;4.70;;;10.60;99.90;;;;;;4981626;28;20030;-78
2022/05/29 04:43:45;;;;;;;16.98;4.03;;;10.70;99.90;;;;;;4981491;28;20502;-75
2022/05/29 04:46:11;;;;;;;17.63;4.53;;;10.70;99.90;;;;;;4983459;28;20039;-77
2022/05/29 04:48:41;;;;;;;21.75;4.90;;;10.80;99.90;;;;;;4970196;28;20509;-77
2022/05/29 04:51:07;;;;;;;15.02;4.15;;;10.70;99.90;;;;;;4985841;28;20026;-78
2022/05/29 04:53:33;;;;;;;17.33;4.07;;;10.80;99.90;;;;;;4988971;28;20025;-76
2022/05/29 04:55:59;;;;;;;14.52;3.97;;;10.80;99.90;;;;;;4986933;28;20837;-76
2022/05/29 04:58:28;;;;;;;18.15;4.13;;;10.80;99.90;;;;;;4980987;28;20073;-78
2022/05/29 05:01:02;;;;;;;19.27;4.80;;;10.80;99.90;;;;;;4998141;28;20069;-77
2022/05/29 05:03:30;;;;;;;14.80;3.58;;;10.90;99.90;;;;;;4989682;28;20039;-77
2022/05/29 05:05:56;;;;;;;18.40;4.30;;;10.80;99.90;;;;;;4980434;28;20190;-75
2022/05/29 05:08:22;;;;;;;15.95;4.40;;;10.80;99.90;;;;;;4988545;28;20062;-76
2022/05/29 05:10:49;;;;;;;11.35;3.97;;;10.80;99.90;;;;;;4988696;28;20035;-76
2022/05/29 05:13:15;;;;;;;18.75;4.97;;;10.80;99.90;;;;;;4983801;28;20053;-77
2022/05/29 05:15:41;;;;;;;23.20;4.68;;;10.90;99.90;;;;;;4983076;28;20026;-76
2022/05/29 05:18:07;;;;;;;11.15;3.50;;;10.80;99.90;;;;;;4983950;28;20022;-75
2022/05/29 05:20:33;;;;;;;15.65;4.25;;;10.80;99.90;;;;;;5003539;28;20544;-76
2022/05/29 05:22:59;;;;;;;16.73;4.10;;;10.80;99.90;;;;;;4986657;28;20041;-75
2022/05/29 05:25:25;;;;;;;18.10;3.78;;;10.80;99.90;;;;;;4982939;28;20042;-76
2022/05/29 05:27:51;;;;;;;21.95;4.90;;;10.90;99.90;;;;;;4987053;28;20037;-75
2022/05/29 05:30:16;;;;;;;20.38;4.15;;;10.90;99.90;;;;;;4983096;28;20026;-78
2022/05/29 05:32:42;;;;;;;14.45;3.97;;;10.90;99.90;;;;;;4983667;28;20049;-78
2022/05/29 05:35:08;;;;;;;15.75;4.18;;;11.00;99.90;;;;;;4984309;28;20039;-77
2022/05/29 05:37:36;;;;;;;12.02;3.83;;;11.00;99.90;;;;;;4985805;28;20027;-77
2022/05/29 05:40:07;;;;;;;18.38;4.05;;;11.00;99.90;;;;;;4985331;28;20022;-77
2022/05/29 05:42:33;;;;;;;15.80;4.78;;;11.00;99.90;;;;;;4986735;28;20589;-77
2022/05/29 05:44:59;;;;;;;19.33;4.88;;;11.10;99.90;;;;;;4983711;28;20121;-76
2022/05/29 05:47:24;;;;;;;16.50;4.68;;;11.10;99.90;;;;;;4984046;28;20062;-79
2022/05/29 05:49:51;;;;;;;15.88;4.90;;;11.10;99.90;;;;;;4986158;28;20030;-77
2022/05/29 05:52:18;;;;;;;15.82;4.03;;;11.10;99.90;;;;;;4988332;28;20034;-76
2022/05/29 05:54:44;;;;;;;26.98;5.40;;;11.20;99.90;;;;;;4986121;28;20029;-77
2022/05/29 05:57:10;;;;;;;14.82;4.72;;;11.10;99.90;;;;;;4980236;28;20031;-78
2022/05/29 05:59:38;;;;;;;13.57;3.63;;;11.10;99.90;;;;;;4982634;28;20058;-76
2022/05/29 06:02:05;;;;;;;13.40;3.85;;;11.20;99.90;;;;;;4980544;28;20030;-77
2022/05/29 06:04:31;;;;;;;14.95;4.72;;;11.20;99.90;;;;;;4981877;28;20101;-77
2022/05/29 06:06:56;;;;;;;19.17;4.05;;;11.20;99.90;;;;;;4980790;28;20491;-77
2022/05/29 06:09:22;;;;;;;18.75;4.53;;;11.20;99.90;;;;;;4985841;28;20539;-77
2022/05/29 06:11:48;;;;;;;16.83;4.07;;;11.30;99.90;;;;;;4985432;28;20031;-78
2022/05/29 06:14:14;;;;;;;17.58;4.97;;;11.30;99.90;;;;;;4987138;28;20042;-77
2022/05/29 06:16:40;;;;;;;15.80;3.88;;;11.30;99.90;;;;;;4978198;28;20041;-76
2022/05/29 06:19:06;;;;;;;14.38;3.75;;;11.30;99.90;;;;;;4984324;28;20040;-77
2022/05/29 06:21:33;;;;;;;11.88;3.50;;;11.30;99.90;;;;;;4982422;28;20061;-75
2022/05/29 06:23:58;;;;;;;11.50;4.50;;;11.30;99.90;;;;;;4981602;28;20064;-78
2022/05/29 06:26:24;;;;;;;14.15;3.85;;;11.30;99.90;;;;;;4980911;28;20094;-76
2022/05/29 06:28:50;;;;;;;12.95;3.40;;;11.40;99.90;;;;;;4973974;28;20034;-77
2022/05/29 06:31:15;;;;;;;15.65;4.63;;;11.40;99.90;;;;;;4982424;28;20035;-76
2022/05/29 06:33:42;;;;;;;15.90;3.97;;;11.40;99.90;;;;;;4986033;28;20053;-74
2022/05/29 06:36:17;;;;;;;14.02;3.85;;;11.50;99.90;;;;;;4985063;28;20476;-76
2022/05/29 06:38:45;;;;;;;14.40;4.43;;;11.50;99.90;;;;;;4978698;28;20053;-76
2022/05/29 06:41:12;;;;;;;15.55;3.92;;;11.50;99.90;;;;;;4979918;28;20030;-77
2022/05/29 06:43:39;;;;;;;15.90;4.15;;;11.40;99.90;;;;;;4978276;28;20057;-76
2022/05/29 06:46:06;;;;;;;15.27;4.50;;;11.50;99.90;;;;;;4983692;28;20022;-78
2022/05/29 06:48:34;;;;;;;13.65;3.60;;;11.40;99.90;;;;;;4980601;28;20030;-75
2022/05/29 06:51:08;;;;;;;15.05;3.72;;;11.40;99.90;;;;;;4988037;28;20030;-76
2022/05/29 06:53:34;;;;;;;11.77;4.30;;;11.40;99.90;;;;;;4980322;28;20201;-76
2022/05/29 06:56:00;;;;;;;9.45;3.80;;;11.40;99.90;;;;;;4983531;28;20509;-76
2022/05/29 06:58:26;;;;;;;11.85;3.65;;;11.40;99.90;;;;;;4962127;28;20034;-77
2022/05/29 07:09:05;;;;;;;9.93;3.53;;;11.60;99.90;;;;;;4975785;28;20054;-77
2022/05/29 07:11:35;;;;;;;16.50;4.03;;;11.50;99.90;;;;;;4982352;28;20034;-76
2022/05/29 07:14:05;;;;;;;9.85;4.00;;;11.50;99.90;;;;;;4982298;28;20039;-76
2022/05/29 07:16:33;;;;;;;15.20;4.27;;;11.50;99.90;;;;;;4986174;28;20022;-76
2022/05/29 07:19:00;;;;;;;11.27;3.53;;;11.60;99.90;;;;;;4986067;28;20398;-76
2022/05/29 07:21:28;;;;;;;15.88;4.35;;;11.60;99.90;;;;;;4994474;28;20034;-77
2022/05/29 07:23:54;;;;;;;13.95;4.30;;;11.60;99.90;;;;;;4995005;28;20026;-75
2022/05/29 07:26:20;;;;;;;14.73;4.75;;;11.60;99.90;;;;;;4981913;28;20026;-75
2022/05/29 07:28:46;;;;;;;9.55;4.13;;;11.60;99.90;;;;;;4976047;28;20041;-76
2022/05/29 07:31:13;;;;;;;13.25;4.43;;;11.70;99.90;;;;;;4972399;28;20498;-77
2022/05/29 07:33:38;;;;;;;15.90;4.65;;;11.80;99.90;;;;;;4977688;28;20510;-76
2022/05/29 07:36:09;;;;;;;14.38;4.60;;;11.90;99.90;;;;;;4983071;28;20076;-75
2022/05/29 07:38:35;;;;;;;12.43;4.03;;;11.90;99.90;;;;;;4979160;28;20019;-75
2022/05/29 07:41:01;;;;;;;14.45;3.55;;;12.00;99.90;;;;;;4986530;28;20034;-75
2022/05/29 07:43:26;;;;;;;16.77;4.20;;;12.10;99.90;;;;;;4976280;28;21157;-75
2022/05/29 07:45:57;;;;;;;14.77;4.85;;;12.10;99.90;;;;;;4958290;28;20030;-75
2022/05/29 07:48:26;;;;;;;12.75;4.05;;;12.20;99.90;;;;;;4970916;28;20033;-75
2022/05/29 07:50:52;;;;;;;8.95;3.95;;;12.30;99.90;;;;;;4977020;28;20026;-75
2022/05/29 07:53:19;;;;;;;10.52;4.05;;;12.30;99.90;;;;;;4973095;28;20038;-75
2022/05/29 07:55:45;;;;;;;11.57;3.63;;;12.40;99.90;;;;;;4981509;28;20030;-75
2022/05/29 07:58:12;;;;;;;21.27;5.57;;;12.60;99.90;;;;;;4980715;28;20553;-76
2022/05/29 08:00:39;;;;;;;15.20;4.10;;;12.60;99.90;;;;;;4969641;28;20039;-75
2022/05/29 08:03:05;;;;;;;16.45;3.65;;;12.80;99.90;;;;;;4957919;28;20057;-75
2022/05/29 08:05:34;;;;;;;12.77;4.38;;;12.90;99.90;;;;;;4962731;28;20457;-75
2022/05/29 08:08:03;;;;;;;9.80;3.58;;;12.90;99.90;;;;;;4963845;28;20039;-75
2022/05/29 08:10:29;;;;;;;15.10;4.25;;;12.90;99.90;;;;;;4964519;28;20031;-76
2022/05/29 08:12:55;;;;;;;14.52;4.50;;;12.80;99.90;;;;;;4967089;28;20109;-76
2022/05/29 08:15:21;;;;;;;10.93;4.32;;;12.80;99.90;;;;;;4966356;28;20041;-75
2022/05/29 08:17:47;;;;;;;13.85;4.82;;;12.70;99.90;;;;;;4973766;28;20022;-76
2022/05/29 08:20:15;;;;;;;11.02;4.35;;;12.50;99.90;;;;;;4974808;28;20513;-75
2022/05/29 08:22:40;;;;;;;25.00;5.28;;;12.40;99.90;;;;;;4978711;28;20030;-75
2022/05/29 08:30:41;;;;;;;15.85;5.32;;;12.30;99.90;;;;;;4962888;28;20090;-76
2022/05/29 08:33:12;;;;;;;8.57;4.50;;;12.30;99.90;;;;;;4990679;28;20125;-76
2022/05/29 08:35:38;;;;;;;10.98;4.10;;;12.30;99.90;;;;;;4975437;28;20041;-76
2022/05/29 08:38:05;;;;;;;12.70;5.32;;;12.30;99.90;;;;;;4972092;28;20031;-76
2022/05/29 08:40:32;;;;;;;11.88;4.53;;;12.30;99.90;;;;;;4975111;28;20030;-75
2022/05/29 08:42:59;;;;;;;14.40;5.22;;;12.30;99.90;;;;;;4958797;28;20034;-76
2022/05/29 08:45:28;;;;;;;11.57;5.38;;;12.40;99.90;;;;;;4975913;28;20030;-75
2022/05/29 08:47:53;;;;;;;10.57;4.55;;;12.30;99.90;;;;;;4975112;28;20181;-77
2022/05/29 08:50:35;;;;;;;12.18;4.20;;;12.30;99.90;;;;;;4979013;28;20038;-76
2022/05/29 08:53:05;;;;;;;13.35;4.85;;;12.30;99.90;;;;;;4986468;28;20034;-77
2022/05/29 08:55:42;;;;;;;11.27;5.15;;;12.20;99.90;;;;;;4978544;28;22338;-77
2022/05/29 08:58:28;;;;;;;13.75;4.00;;;12.20;99.90;;;;;;4972311;28;20488;-75
2022/05/29 09:00:59;;;;;;;15.85;4.57;;;12.20;99.90;;;;;;4987311;28;20026;-77
2022/05/29 09:03:48;;;;;;;10.25;4.30;;;12.20;99.90;;;;;;4983852;28;20030;-77
2022/05/29 09:06:18;;;;;;;14.82;5.25;;;12.20;99.90;;;;;;4981785;28;20038;-79
2022/05/29 09:09:10;;;;;;;17.70;5.10;;;12.20;99.90;;;;;;4980487;28;20092;-76
2022/05/29 09:11:40;;;;;;;;;;;12.20;99.90;;;;;;4971526;28;20047;-78
2022/05/29 09:14:23;;;;;;;12.13;3.83;;;12.20;99.90;;;;;;4968393;28;19914;-76
2022/05/29 09:16:58;;;;;;;12.18;3.83;;;12.10;99.90;;;;;;4968886;28;20053;-76
2022/05/29 09:19:33;;;;;;;14.13;3.90;;;12.00;99.90;;;;;;4969974;28;20037;-75
2022/05/29 09:22:10;;;;;;;11.43;3.55;;;12.00;99.90;;;;;;4968604;28;20043;-76
2022/05/29 09:25:28;;;;;;;10.05;3.50;;;11.90;99.90;;;;;;4969673;28;20053;-76
2022/05/29 09:27:54;;;;;;;12.93;4.63;;;11.90;99.90;;;;;;4969733;28;20146;-75
2022/05/29 09:30:20;;;;;;;11.10;3.85;;;11.90;99.90;;;;;;4961928;28;20034;-77
2022/05/29 09:32:57;;;;;;;11.63;4.00;;;11.90;99.90;;;;;;4964369;28;20764;-75
2022/05/29 09:35:28;;;;;;;8.52;3.58;;;12.00;99.90;;;;;;4970608;28;20582;-77
2022/05/29 09:38:03;;;;;;;13.27;4.47;;;11.90;99.90;;;;;;4983341;28;20031;-78
2022/05/29 09:40:41;;;;;;;11.90;3.75;;;11.70;99.90;;;;;;4988981;28;20047;-76
2022/05/29 09:43:23;;;;;;;12.48;3.60;;;11.70;99.90;;;;;;4992869;28;20383;-76
2022/05/29 09:45:51;;;;;;;13.00;3.75;;;11.70;99.90;;;;;;4995906;28;20037;-76
2022/05/29 09:51:24;;;;;;;9.18;3.33;;;11.90;99.90;;;;;;4997942;28;20090;-79
2022/05/29 09:54:04;;;;;;;9.75;3.75;;;12.00;99.90;;;;;;4986532;28;20034;-77
2022/05/29 09:56:33;;;;;;;13.15;3.97;;;12.00;99.90;;;;;;4981997;28;20217;-77
2022/05/29 09:59:05;;;;;;;8.85;3.42;;;12.00;99.90;;;;;;4985048;28;20114;-76
2022/05/29 10:01:34;;;;;;;9.27;3.90;;;12.00;99.90;;;;;;4979216;28;20045;-76
2022/05/29 10:04:03;;;;;;;44.70;5.57;;;12.00;99.90;;;;;;4959088;28;20059;-77
2022/05/29 10:06:35;;;;;;;11.40;4.43;;;12.00;99.90;;;;;;4980766;28;20043;-78
2022/05/29 10:09:23;;;;;;;10.07;3.72;;;12.00;99.90;;;;;;4968274;28;20058;-75
2022/05/29 10:11:58;;;;;;;9.98;3.30;;;12.00;99.90;;;;;;4975397;28;20030;-76
2022/05/29 10:14:54;;;;;;;10.57;3.45;;;12.10;99.90;;;;;;4959090;28;20511;-77
2022/05/29 10:17:29;;;;;;;14.63;3.88;;;12.30;99.90;;;;;;4985525;28;20042;-75
2022/05/29 10:19:55;;;;;;;13.20;3.97;;;12.20;99.90;;;;;;4983426;28;20034;-75
2022/05/29 10:22:27;;;;;;;10.50;3.70;;;12.20;99.90;;;;;;4973925;28;20039;-77
2022/05/29 10:24:54;;;;;;;12.30;3.40;;;12.20;99.90;;;;;;4984047;28;20041;-75
2022/05/29 10:27:35;;;;;;;10.27;3.55;;;12.20;99.90;;;;;;4974495;28;20050;-76
2022/05/29 10:30:24;;;;;;;11.70;3.92;;;12.30;99.90;;;;;;4973048;28;20034;-76
2022/05/29 10:33:09;;;;;;;13.27;4.22;;;12.30;99.90;;;;;;4969248;28;20068;-77
2022/05/29 10:35:40;;;;;;;13.05;3.70;;;12.40;99.90;;;;;;4982135;28;20118;-76
2022/05/29 10:38:27;;;;;;;8.73;3.38;;;12.50;99.90;;;;;;4976777;28;20035;-75
2022/05/29 10:41:00;;;;;;;11.63;3.53;;;12.50;99.90;;;;;;4980523;28;20033;-75
2022/05/29 10:43:42;;;;;;;10.43;4.30;;;12.50;99.90;;;;;;4977568;28;20130;-76
2022/05/29 10:46:15;;;;;;;8.77;3.30;;;12.50;99.90;;;;;;4978209;28;20069;-76
2022/05/29 10:49:07;;;;;;;11.88;3.50;;;12.50;99.90;;;;;;4976401;28;20038;-77
2022/05/29 10:52:20;;;;;;;10.60;2.97;;;12.50;99.90;;;;;;4984820;28;20115;-76
2022/05/29 10:55:02;;;;;;;9.48;3.45;;;12.40;99.90;;;;;;4980099;28;20101;-77
2022/05/29 10:57:56;;;;;;;6.40;2.67;;;12.40;99.90;;;;;;4969490;28;20110;-76
2022/05/29 11:03:17;;;;;;;9.43;3.50;;;12.50;99.90;;;;;;4983730;28;20026;-75
2022/05/29 11:04:07;;;;;;;10.65;2.90;;;12.60;99.90;;;;;;4954874;28;20165;-78
2022/05/29 11:07:07;;;;;;;7.82;2.80;;;12.60;99.90;;;;;;4970752;28;20495;-76
2022/05/29 11:10:00;;;;;;;6.63;3.05;;;12.70;99.90;;;;;;4986878;28;20580;-80
2022/05/29 11:12:48;;;;;;;9.38;2.88;;;12.80;99.90;;;;;;4970767;28;20031;-77
2022/05/29 11:15:22;;;;;;;12.57;3.00;;;12.80;99.90;;;;;;4970332;28;20030;-78
2022/05/29 11:18:09;;;;;;;10.95;3.30;;;12.90;99.90;;;;;;4978980;28;20039;-75
2022/05/29 11:20:52;;;;;;;11.63;3.13;;;13.00;99.90;;;;;;4978352;28;20030;-77
2022/05/29 11:24:03;;;;;;;11.18;4.20;;;13.00;99.90;;;;;;4983719;28;20042;-74
2022/05/29 11:26:42;;;;;;;8.73;3.10;;;13.00;99.90;;;;;;4966713;28;20026;-77
2022/05/29 11:29:26;;;;;;;11.90;3.50;;;13.00;99.90;;;;;;4981389;28;20112;-76
2022/05/29 11:32:03;;;;;;;7.40;3.13;;;13.10;99.90;;;;;;4963363;28;20031;-76
2022/05/29 11:34:47;;;;;;;9.95;2.53;;;13.20;99.90;;;;;;4981837;28;20031;-74
2022/05/29 11:37:40;;;;;;;7.63;2.88;;;13.20;99.90;;;;;;4978455;28;20029;-75
2022/05/29 11:40:15;;;;;;;6.03;2.85;;;13.30;99.90;;;;;;4977624;28;20027;-76
2022/05/29 11:43:01;;;;;;;11.65;3.10;;;13.40;99.90;;;;;;4984929;28;20030;-76
2022/05/29 11:51:29;;;;;;;11.73;3.33;;;13.50;99.90;;;;;;4980632;28;20027;-76
2022/05/29 11:54:10;;;;;;;8.13;3.08;;;13.50;99.90;;;;;;4976125;28;20033;-82
2022/05/29 11:56:42;;;;;;;7.82;2.50;;;13.40;99.90;;;;;;4982079;28;20026;-77
2022/05/29 12:00:03;;;;;;;11.63;3.05;;;13.30;99.90;;;;;;4994293;28;20453;-78
2022/05/29 12:02:38;;;;;;;8.95;2.40;;;13.30;99.90;;;;;;4970398;28;20046;-75
2022/05/29 12:05:32;;;;;;;9.55;2.33;;;13.30;99.90;;;;;;4970653;28;20030;-76
2022/05/29 12:08:27;;;;;;;10.25;2.75;;;13.30;99.90;;;;;;4985842;28;20065;-76
2022/05/29 12:10:58;;;;;;;6.32;2.42;;;13.40;99.90;;;;;;4982487;28;20038;-75
2022/05/29 12:13:31;;;;;;;9.57;3.25;;;13.40;99.90;;;;;;4978037;28;20096;-74
2022/05/29 12:16:09;;;;;;;6.95;2.72;;;13.50;99.90;;;;;;4984563;28;20197;-75
2022/05/29 12:18:51;;;;;;;12.45;2.33;;;13.50;99.90;;;;;;4977260;28;20023;-74
2022/05/29 12:21:26;;;;;;;8.50;2.85;;;13.60;99.90;;;;;;4982741;28;20022;-74
2022/05/29 12:23:54;;;;;;;7.45;2.67;;;13.60;99.90;;;;;;4972986;28;20031;-75
2022/05/29 12:26:36;;;;;;;10.27;2.50;;;13.60;99.90;;;;;;4976881;28;20026;-74
2022/05/29 12:29:11;;;;;;;8.75;2.67;;;13.60;99.90;;;;;;4978720;28;20023;-75
2022/05/29 12:32:01;;;;;;;11.73;2.90;;;13.60;99.90;;;;;;4971438;28;20034;-75
2022/05/29 12:34:41;;;;;;;8.40;2.72;;;13.60;99.90;;;;;;4963195;28;20068;-75
2022/05/29 12:37:37;;;;;;;4.55;1.90;;;13.50;99.90;;;;;;4973220;28;20022;-74
2022/05/29 12:40:16;;;;;;;6.82;2.50;;;13.40;99.90;;;;;;4979574;28;20080;-75
2022/05/29 12:43:20;;;;;;;5.30;2.20;;;13.20;99.90;;;;;;4980491;28;20038;-75
2022/05/29 12:46:19;;;;;;;7.25;2.83;;;13.10;99.90;;;;;;4960623;28;20038;-75
2022/05/29 12:49:07;;;;;;;6.65;2.35;;;13.10;99.90;;;;;;4979443;28;20062;-75
2022/05/29 12:52:02;;;;;;;7.90;3.00;;;13.10;99.90;;;;;;4981700;28;20404;-75
2022/05/29 12:55:01;;;;;;;7.70;2.38;;;13.10;99.90;;;;;;4982488;28;20026;-75
2022/05/29 12:57:54;;;;;;;7.55;2.58;;;13.00;99.90;;;;;;4957475;28;20019;-74
2022/05/29 13:01:03;;;;;;;6.05;2.38;;;12.80;99.90;;;;;;4962885;28;20019;-75
2022/05/29 13:03:50;;;;;;;5.85;2.42;;;12.80;99.90;;;;;;4949466;28;20042;-74
2022/05/29 13:06:45;;;;;;;7.88;2.67;;;12.90;99.90;;;;;;4972015;28;20558;-75
2022/05/29 13:09:29;;;;;;;9.70;2.85;;;13.00;99.90;;;;;;4971853;28;20398;-75
2022/05/29 13:12:00;;;;;;;5.18;2.33;;;13.20;99.90;;;;;;4986681;28;20502;-75
2022/05/29 13:14:27;;;;;;;7.38;2.33;;;13.40;99.90;;;;;;4982593;28;20026;-74
2022/05/29 13:17:09;;;;;;;7.85;2.30;;;13.40;99.90;;;;;;4977025;28;20026;-75
2022/05/29 13:20:05;;;;;;;8.43;2.33;;;13.40;99.90;;;;;;4975635;28;20236;-74
2022/05/29 13:22:55;;;;;;;7.72;2.70;;;13.40;99.90;;;;;;4969733;28;20026;-75
2022/05/29 13:25:36;;;;;;;7.90;2.42;;;13.40;99.90;;;;;;4969547;28;20943;-74
2022/05/29 13:28:27;;;;;;;6.05;2.15;;;13.50;99.90;;;;;;4973377;28;20030;-74
2022/05/29 13:31:06;;;;;;;8.18;2.33;;;13.70;99.90;;;;;;4958276;28;20037;-74
2022/05/29 13:33:43;;;;;;;6.63;2.30;;;13.80;99.90;;;;;;4981197;28;20026;-75
2022/05/29 13:36:09;;;;;;;4.88;2.25;;;13.80;99.90;;;;;;4961802;28;20035;-74
2022/05/29 13:38:44;;;;;;;4.60;2.00;;;13.70;99.90;;;;;;4976642;28;20080;-74
2022/05/29 13:41:26;;;;;;;7.78;2.20;;;13.60;99.90;;;;;;4980634;28;20062;-74
2022/05/29 13:43:52;;;;;;;6.25;2.47;;;13.60;99.90;;;;;;4962823;28;20031;-74